createdAt,value
2017-08-07T00:00:45.859Z,15.10
2017-08-07T00:03:13.564Z,15.10
2017-08-07T00:05:41.216Z,15.00
2017-08-07T00:08:08.910Z,14.90
2017-08-07T00:10:37.330Z,14.80
2017-08-07T00:13:05.814Z,14.80
2017-08-07T00:15:33.462Z,14.90
2017-08-07T00:18:01.156Z,14.90
2017-08-07T00:20:28.805Z,14.80
2017-08-07T00:22:56.454Z,14.80
2017-08-07T00:25:24.145Z,14.70
2017-08-07T00:27:51.791Z,14.60
2017-08-07T00:30:19.502Z,14.70
2017-08-07T00:32:47.150Z,14.70
2017-08-07T00:35:15.616Z,14.60
2017-08-07T00:37:43.275Z,14.60
2017-08-07T00:40:10.973Z,14.30
2017-08-07T00:42:38.627Z,14.30
2017-08-07T00:45:06.323Z,14.40
2017-08-07T00:47:33.977Z,14.40
2017-08-07T00:50:01.670Z,14.40
2017-08-07T00:52:29.327Z,14.40
2017-08-07T00:54:57.023Z,14.40
2017-08-07T00:57:24.671Z,14.30
2017-08-07T00:59:53.135Z,14.20
2017-08-07T01:02:21.551Z,14.10
2017-08-07T01:04:49.253Z,14.10
2017-08-07T01:07:16.920Z,14.10
2017-08-07T01:09:44.610Z,14.10
2017-08-07T01:12:12.258Z,14.10
2017-08-07T01:14:40.716Z,14.20
2017-08-07T01:17:08.373Z,14.20
2017-08-07T01:19:36.067Z,14.10
2017-08-07T01:22:03.733Z,14.10
2017-08-07T01:24:31.426Z,14.00
2017-08-07T01:26:59.074Z,13.90
2017-08-07T01:29:26.727Z,13.90
2017-08-07T01:31:54.427Z,13.90
2017-08-07T01:34:22.074Z,13.80
2017-08-07T01:36:49.783Z,13.70
2017-08-07T01:39:17.461Z,13.70
2017-08-07T01:41:45.164Z,13.80
2017-08-07T01:44:12.823Z,13.70
2017-08-07T01:46:40.586Z,13.70
2017-08-07T01:49:08.279Z,13.70
2017-08-07T01:51:36.767Z,13.70
2017-08-07T01:54:04.439Z,13.60
2017-08-07T01:56:32.151Z,13.60
2017-08-07T01:58:59.810Z,13.50
2017-08-07T02:01:27.562Z,13.30
2017-08-07T02:03:55.219Z,13.50
2017-08-07T02:06:22.918Z,13.40
2017-08-07T02:08:51.326Z,13.40
2017-08-07T02:11:19.024Z,13.40
2017-08-07T02:13:46.675Z,13.40
2017-08-07T02:16:14.362Z,13.30
2017-08-07T02:18:42.774Z,13.50
2017-08-07T02:21:10.475Z,13.50
2017-08-07T02:23:38.121Z,13.40
2017-08-07T02:26:05.806Z,13.30
2017-08-07T02:28:33.454Z,13.30
2017-08-07T02:31:01.160Z,13.30
2017-08-07T02:33:28.810Z,13.30
2017-08-07T02:35:57.226Z,13.00
2017-08-07T02:38:24.916Z,13.00
2017-08-07T02:40:52.562Z,13.10
2017-08-07T02:43:20.251Z,12.90
2017-08-07T02:45:48.658Z,12.90
2017-08-07T02:48:16.347Z,12.90
2017-08-07T02:50:43.994Z,12.90
2017-08-07T02:53:11.684Z,12.80
2017-08-07T02:55:39.328Z,12.90
2017-08-07T02:58:07.010Z,12.90
2017-08-07T03:00:34.658Z,13.00
2017-08-07T03:03:02.352Z,13.00
2017-08-07T03:05:30.763Z,12.80
2017-08-07T03:07:58.455Z,12.80
2017-08-07T03:10:26.102Z,12.80
2017-08-07T03:12:53.782Z,12.90
2017-08-07T03:15:21.458Z,12.70
2017-08-07T03:17:49.911Z,12.70
2017-08-07T03:20:17.559Z,12.70
2017-08-07T03:22:45.246Z,12.60
2017-08-07T03:25:12.899Z,12.60
2017-08-07T03:27:40.583Z,12.60
2017-08-07T03:30:09.002Z,12.60
2017-08-07T03:32:36.686Z,12.60
2017-08-07T03:35:04.327Z,12.50
2017-08-07T03:37:32.016Z,12.50
2017-08-07T03:39:59.662Z,12.40
2017-08-07T03:42:27.313Z,12.40
2017-08-07T03:44:55.002Z,12.30
2017-08-07T03:47:22.656Z,12.30
2017-08-07T03:49:50.339Z,12.20
2017-08-07T03:52:18.746Z,12.20
2017-08-07T03:54:46.439Z,12.20
2017-08-07T03:57:14.090Z,12.00
2017-08-07T03:59:41.783Z,11.90
2017-08-07T04:02:10.203Z,12.10
2017-08-07T04:04:37.896Z,12.10
2017-08-07T04:07:05.549Z,12.30
2017-08-07T04:09:33.245Z,12.30
2017-08-07T04:12:01.684Z,12.00
2017-08-07T04:14:29.380Z,12.00
2017-08-07T04:16:57.026Z,12.20
2017-08-07T04:19:24.711Z,12.00
2017-08-07T04:21:52.359Z,11.90
2017-08-07T04:24:20.819Z,11.70
2017-08-07T04:26:48.470Z,11.60
2017-08-07T04:29:16.919Z,11.60
2017-08-07T04:31:44.568Z,11.60
2017-08-07T04:34:12.258Z,11.60
2017-08-07T04:36:39.903Z,11.70
2017-08-07T04:39:07.587Z,12.00
2017-08-07T04:41:35.235Z,12.00
2017-08-07T04:44:02.880Z,12.00
2017-08-07T04:46:30.567Z,12.10
2017-08-07T04:48:58.224Z,12.10
2017-08-07T04:51:25.926Z,12.10
2017-08-07T04:53:53.568Z,12.10
2017-08-07T04:56:22.021Z,12.30
2017-08-07T04:58:49.666Z,12.30
2017-08-07T05:01:17.355Z,12.40
2017-08-07T05:03:45.768Z,12.40
2017-08-07T05:06:13.463Z,12.40
2017-08-07T05:08:41.122Z,12.50
2017-08-07T05:11:08.806Z,12.40
2017-08-07T05:13:36.455Z,12.40
2017-08-07T05:16:04.143Z,12.60
2017-08-07T05:18:32.681Z,12.50
2017-08-07T05:21:00.370Z,12.50
2017-08-07T05:23:28.775Z,12.90
2017-08-07T05:25:56.459Z,12.90
2017-08-07T05:28:24.103Z,12.90
2017-08-07T05:30:51.796Z,12.80
2017-08-07T05:33:19.441Z,12.90
2017-08-07T05:35:47.127Z,13.00
2017-08-07T05:38:14.777Z,13.10
2017-08-07T05:40:42.503Z,13.10
2017-08-07T05:43:10.162Z,13.10
2017-08-07T05:45:37.811Z,13.10
2017-08-07T05:48:05.499Z,13.20
2017-08-07T05:50:33.154Z,13.40
2017-08-07T05:53:00.851Z,13.60
2017-08-07T05:55:28.503Z,13.80
2017-08-07T05:57:56.187Z,13.80
2017-08-07T06:00:23.863Z,13.80
2017-08-07T06:02:51.550Z,14.10
2017-08-07T06:05:19.199Z,14.20
2017-08-07T06:07:46.892Z,14.40
2017-08-07T06:10:14.534Z,14.50
2017-08-07T06:12:42.219Z,14.70
2017-08-07T06:15:09.865Z,14.80
2017-08-07T06:17:37.560Z,15.00
2017-08-07T06:20:05.975Z,15.40
2017-08-07T06:22:33.670Z,15.40
2017-08-07T06:25:01.315Z,15.40
2017-08-07T06:27:29.026Z,15.50
2017-08-07T06:29:57.438Z,15.90
2017-08-07T06:32:25.126Z,15.90
2017-08-07T06:34:52.767Z,16.10
2017-08-07T06:37:20.460Z,16.30
2017-08-07T06:39:48.143Z,16.40
2017-08-07T06:42:15.877Z,16.60
2017-08-07T06:44:43.530Z,16.80
2017-08-07T06:47:11.180Z,16.90
2017-08-07T06:49:38.871Z,16.90
2017-08-07T06:52:06.531Z,17.10
2017-08-07T06:54:34.989Z,17.50
2017-08-07T06:57:02.642Z,17.50
2017-08-07T06:59:30.340Z,17.70
2017-08-07T07:01:57.987Z,18.00
2017-08-07T07:04:25.677Z,18.30
2017-08-07T07:06:53.371Z,18.40
2017-08-07T07:11:47.971Z,18.60
2017-08-07T07:14:15.680Z,18.80
2017-08-07T07:16:43.324Z,18.50
2017-08-07T07:19:12.039Z,19.10
2017-08-07T07:21:39.684Z,19.00
2017-08-07T07:24:07.380Z,19.20
2017-08-07T07:26:35.024Z,19.40
2017-08-07T07:29:02.728Z,19.60
2017-08-07T07:31:30.372Z,19.70
2017-08-07T07:33:58.055Z,19.90
2017-08-07T07:36:25.703Z,20.10
2017-08-07T07:38:53.383Z,20.40
2017-08-07T07:41:21.793Z,20.70
2017-08-07T07:43:49.503Z,20.60
2017-08-07T07:46:17.145Z,20.60
2017-08-07T07:48:44.879Z,20.80
2017-08-07T07:51:12.581Z,20.80
2017-08-07T07:53:40.227Z,20.80
2017-08-07T07:56:07.915Z,20.90
2017-08-07T07:58:36.335Z,21.20
2017-08-07T08:01:04.021Z,21.10
2017-08-07T08:03:31.667Z,21.20
2017-08-07T08:05:59.349Z,21.50
2017-08-07T08:08:26.995Z,21.50
2017-08-07T08:10:54.684Z,21.80
2017-08-07T08:13:22.332Z,21.60
2017-08-07T08:15:50.025Z,21.80
2017-08-07T08:18:17.671Z,22.10
2017-08-07T08:20:46.124Z,22.30
2017-08-07T08:23:13.767Z,22.30
2017-08-07T08:25:41.461Z,22.70
2017-08-07T08:28:09.111Z,22.60
2017-08-07T08:30:36.799Z,22.70
2017-08-07T08:33:05.211Z,23.10
2017-08-07T08:35:32.904Z,23.00
2017-08-07T08:38:00.559Z,23.30
2017-08-07T08:40:28.248Z,23.20
2017-08-07T08:42:56.662Z,23.20
2017-08-07T08:45:24.359Z,23.20
2017-08-07T08:47:52.001Z,23.20
2017-08-07T08:50:19.643Z,23.30
2017-08-07T08:52:47.335Z,23.20
2017-08-07T08:55:14.983Z,23.50
2017-08-07T08:57:42.675Z,23.90
2017-08-07T09:00:10.328Z,24.00
2017-08-07T09:02:38.028Z,24.30
2017-08-07T09:05:05.691Z,24.60
2017-08-07T09:07:33.381Z,24.80
2017-08-07T09:10:01.027Z,24.70
2017-08-07T09:12:28.723Z,24.60
2017-08-07T09:14:56.374Z,24.90
2017-08-07T09:17:24.067Z,24.90
2017-08-07T09:19:51.710Z,24.80
2017-08-07T09:22:19.398Z,24.50
2017-08-07T09:24:47.051Z,24.50
2017-08-07T09:27:14.739Z,24.60
2017-08-07T09:29:42.384Z,24.80
2017-08-07T09:32:10.087Z,25.00
2017-08-07T09:34:37.736Z,25.20
2017-08-07T09:37:05.427Z,25.30
2017-08-07T09:39:33.079Z,25.20
2017-08-07T09:42:00.780Z,25.40
2017-08-07T09:44:28.433Z,25.60
2017-08-07T09:46:56.122Z,25.40
2017-08-07T09:49:23.767Z,25.60
2017-08-07T09:51:51.458Z,25.70
2017-08-07T09:54:19.147Z,25.70
2017-08-07T09:56:47.567Z,25.80
2017-08-07T09:59:15.254Z,25.70
2017-08-07T10:01:42.906Z,26.00
2017-08-07T10:04:10.604Z,26.20
2017-08-07T10:06:39.023Z,26.50
2017-08-07T10:09:06.727Z,26.40
2017-08-07T10:11:34.371Z,26.40
2017-08-07T10:14:02.122Z,26.20
2017-08-07T10:16:29.774Z,26.00
2017-08-07T10:18:57.470Z,26.10
2017-08-07T10:21:25.147Z,26.20
2017-08-07T10:23:53.603Z,26.90
2017-08-07T10:26:21.251Z,26.90
2017-08-07T10:28:48.943Z,26.60
2017-08-07T10:31:17.366Z,25.90
2017-08-07T10:33:45.056Z,25.90
2017-08-07T10:36:12.719Z,25.90
2017-08-07T10:38:40.410Z,26.10
2017-08-07T10:41:08.059Z,26.00
2017-08-07T10:43:36.519Z,26.20
2017-08-07T10:46:04.167Z,26.10
2017-08-07T10:48:31.861Z,26.40
2017-08-07T10:50:59.508Z,26.80
2017-08-07T10:53:27.980Z,27.50
2017-08-07T10:55:55.624Z,27.50
2017-08-07T10:58:23.274Z,27.60
2017-08-07T11:00:50.963Z,27.80
2017-08-07T11:03:19.379Z,28.00
2017-08-07T11:05:47.063Z,28.00
2017-08-07T11:08:14.712Z,28.10
2017-08-07T11:10:42.400Z,28.10
2017-08-07T11:13:10.954Z,28.30
2017-08-07T11:15:38.658Z,28.20
2017-08-07T11:18:07.078Z,28.20
2017-08-07T11:20:34.768Z,28.20
2017-08-07T11:23:02.418Z,27.80
2017-08-07T11:25:30.110Z,27.60
2017-08-07T11:27:57.759Z,27.40
2017-08-07T11:30:25.462Z,27.50
2017-08-07T11:32:53.111Z,27.90
2017-08-07T11:35:20.804Z,28.30
2017-08-07T11:37:48.451Z,28.20
2017-08-07T11:40:16.140Z,28.40
2017-08-07T11:42:43.787Z,28.60
2017-08-07T11:45:11.479Z,28.70
2017-08-07T11:47:39.130Z,28.70
2017-08-07T11:50:06.814Z,28.40
2017-08-07T11:52:35.223Z,27.80
2017-08-07T11:55:02.925Z,27.80
2017-08-07T11:57:30.575Z,28.40
2017-08-07T11:59:58.263Z,28.40
2017-08-07T12:02:26.724Z,28.80
2017-08-07T12:04:54.370Z,28.80
2017-08-07T12:07:22.057Z,28.80
2017-08-07T12:09:50.475Z,28.90
2017-08-07T12:12:18.163Z,28.90
2017-08-07T12:14:45.811Z,28.50
2017-08-07T12:17:13.503Z,28.00
2017-08-07T12:19:41.150Z,27.80
2017-08-07T12:22:08.835Z,27.80
2017-08-07T12:24:37.261Z,28.10
2017-08-07T12:27:04.952Z,28.10
2017-08-07T12:29:32.600Z,27.70
2017-08-07T12:32:00.282Z,28.00
2017-08-07T12:34:27.931Z,28.10
2017-08-07T12:36:55.624Z,28.20
2017-08-07T12:39:23.283Z,28.40
2017-08-07T12:41:51.761Z,28.60
2017-08-07T12:44:20.180Z,28.30
2017-08-07T12:46:47.878Z,28.30
2017-08-07T12:49:15.541Z,28.60
2017-08-07T12:51:43.999Z,28.70
2017-08-07T12:54:11.648Z,28.60
2017-08-07T12:56:39.347Z,28.60
2017-08-07T12:59:07.759Z,28.90
2017-08-07T13:01:35.450Z,28.90
2017-08-07T13:04:03.100Z,29.10
2017-08-07T13:06:30.782Z,29.20
2017-08-07T13:08:58.427Z,29.30
2017-08-07T13:11:26.121Z,29.60
2017-08-07T13:13:54.544Z,29.60
2017-08-07T13:16:22.187Z,29.60
2017-08-07T13:18:49.883Z,29.50
2017-08-07T13:21:17.528Z,29.40
2017-08-07T13:23:45.215Z,29.40
2017-08-07T13:26:12.864Z,29.30
2017-08-07T13:28:40.555Z,29.30
2017-08-07T13:31:08.983Z,29.50
2017-08-07T13:33:36.675Z,29.40
2017-08-07T13:36:04.330Z,29.20
2017-08-07T13:38:32.023Z,29.50
2017-08-07T13:40:59.667Z,29.50
2017-08-07T13:43:29.281Z,29.20
2017-08-07T13:45:57.006Z,29.20
2017-08-07T13:48:25.546Z,29.50
2017-08-07T13:50:53.211Z,29.60
2017-08-07T13:53:20.902Z,29.50
2017-08-07T13:55:48.550Z,29.50
2017-08-07T13:58:16.247Z,29.80
2017-08-07T14:00:43.891Z,29.70
2017-08-07T14:03:11.579Z,29.70
2017-08-07T14:05:39.990Z,29.60
2017-08-07T14:08:07.676Z,29.50
2017-08-07T14:10:35.339Z,29.90
2017-08-07T14:13:03.031Z,29.90
2017-08-07T14:15:30.692Z,29.80
2017-08-07T14:17:59.106Z,29.50
2017-08-07T14:20:26.804Z,29.50
2017-08-07T14:22:54.461Z,29.70
2017-08-07T14:25:22.147Z,29.70
2017-08-07T14:27:50.567Z,29.60
2017-08-07T14:30:18.270Z,29.60
2017-08-07T14:32:45.915Z,29.50
2017-08-07T14:35:13.609Z,29.50
2017-08-07T14:37:42.019Z,29.90
2017-08-07T14:40:09.716Z,29.90
2017-08-07T14:42:37.368Z,29.80
2017-08-07T14:45:05.067Z,29.60
2017-08-07T14:47:32.721Z,29.40
2017-08-07T14:50:01.183Z,29.40
2017-08-07T14:52:28.832Z,29.40
2017-08-07T14:54:56.530Z,29.50
2017-08-07T14:57:24.171Z,29.60
2017-08-07T14:59:52.623Z,29.60
2017-08-07T15:02:20.267Z,29.60
2017-08-07T15:04:47.956Z,29.30
2017-08-07T15:07:15.607Z,29.30
2017-08-07T15:09:43.308Z,29.10
2017-08-07T15:12:10.955Z,29.10
2017-08-07T15:14:39.415Z,29.40
2017-08-07T15:17:07.074Z,29.40
2017-08-07T15:19:34.763Z,29.50
2017-08-07T15:22:02.415Z,29.60
2017-08-07T15:24:30.834Z,29.20
2017-08-07T15:26:58.529Z,29.20
2017-08-07T15:29:26.188Z,29.30
2017-08-07T15:31:53.879Z,29.30
2017-08-07T15:34:21.524Z,29.40
2017-08-07T15:36:49.983Z,30.40
2017-08-07T15:39:17.639Z,30.40
2017-08-07T15:41:45.331Z,30.70
2017-08-07T15:44:13.738Z,31.50
2017-08-07T15:46:41.427Z,31.50
2017-08-07T15:49:09.082Z,31.90
2017-08-07T15:51:36.771Z,32.30
2017-08-07T15:54:05.183Z,32.80
2017-08-07T15:56:32.877Z,32.80
2017-08-07T15:59:00.528Z,32.90
2017-08-07T16:01:28.217Z,33.10
2017-08-07T16:03:55.876Z,33.00
2017-08-07T16:06:23.571Z,32.00
2017-08-07T16:08:51.214Z,31.60
2017-08-07T16:11:19.662Z,30.60
2017-08-07T16:13:47.308Z,30.60
2017-08-07T16:16:15.002Z,29.80
2017-08-07T16:18:43.423Z,29.10
2017-08-07T16:21:11.115Z,29.10
2017-08-07T16:23:38.764Z,28.90
2017-08-07T16:26:06.467Z,28.50
2017-08-07T16:28:34.879Z,28.30
2017-08-07T16:31:02.532Z,28.30
2017-08-07T16:33:30.232Z,28.30
2017-08-07T16:35:57.881Z,28.10
2017-08-07T16:38:25.564Z,27.80
2017-08-07T16:40:53.211Z,27.60
2017-08-07T16:43:20.895Z,27.40
2017-08-07T16:45:49.303Z,27.40
2017-08-07T16:48:16.991Z,27.40
2017-08-07T16:50:44.643Z,27.40
2017-08-07T16:53:13.091Z,27.40
2017-08-07T16:55:40.737Z,27.10
2017-08-07T16:58:09.186Z,27.10
2017-08-07T17:00:36.861Z,27.10
2017-08-07T17:03:04.556Z,27.10
2017-08-07T17:05:32.198Z,27.00
2017-08-07T17:08:00.655Z,27.00
2017-08-07T17:10:28.303Z,27.00
2017-08-07T17:12:56.032Z,26.90
2017-08-07T17:15:23.683Z,26.80
2017-08-07T17:17:51.376Z,26.60
2017-08-07T17:20:19.024Z,26.60
2017-08-07T17:22:46.718Z,26.40
2017-08-07T17:25:14.362Z,26.50
2017-08-07T17:27:42.050Z,26.40
2017-08-07T17:30:10.476Z,26.10
2017-08-07T17:32:38.171Z,26.10
2017-08-07T17:35:05.818Z,25.80
2017-08-07T17:37:33.462Z,25.70
2017-08-07T17:40:01.155Z,25.80
2017-08-07T17:42:29.571Z,25.70
2017-08-07T17:44:57.266Z,25.70
2017-08-07T17:47:24.918Z,25.80
2017-08-07T17:49:52.616Z,25.60
2017-08-07T17:52:21.039Z,25.50
2017-08-07T17:54:48.736Z,25.40
2017-08-07T17:57:16.389Z,25.50
2017-08-07T17:59:44.081Z,25.50
2017-08-07T18:02:11.743Z,25.40
2017-08-07T18:04:39.437Z,25.30
2017-08-07T18:07:07.099Z,25.30
2017-08-07T18:09:34.791Z,25.20
2017-08-07T18:12:02.440Z,25.00
2017-08-07T18:14:30.127Z,25.00
2017-08-07T18:16:58.548Z,24.80
2017-08-07T18:19:26.242Z,24.80
2017-08-07T18:21:53.896Z,24.70
2017-08-07T18:24:21.584Z,24.70
2017-08-07T18:26:49.999Z,24.60
2017-08-07T18:31:51.678Z,24.60
2017-08-07T18:34:19.371Z,24.50
2017-08-07T18:36:47.023Z,24.30
2017-08-07T18:39:14.727Z,24.20
2017-08-07T18:41:42.375Z,24.30
2017-08-07T18:44:10.789Z,24.10
2017-08-07T18:46:38.487Z,24.10
2017-08-07T18:49:06.160Z,24.10
2017-08-07T18:51:33.876Z,23.90
2017-08-07T18:54:01.537Z,23.80
2017-08-07T18:56:29.223Z,23.80
2017-08-07T18:58:56.891Z,23.60
2017-08-07T19:01:24.625Z,23.60
2017-08-07T19:03:52.313Z,23.50
2017-08-07T19:06:19.999Z,23.40
2017-08-07T19:08:47.657Z,23.40
2017-08-07T19:11:15.343Z,22.90
2017-08-07T19:13:42.997Z,22.60
2017-08-07T19:16:10.694Z,22.40
2017-08-07T19:18:38.346Z,22.40
2017-08-07T19:21:06.043Z,22.30
2017-08-07T19:23:34.780Z,21.90
2017-08-07T19:26:03.659Z,21.70
2017-08-07T19:28:33.347Z,21.80
2017-08-07T19:31:05.573Z,21.80
2017-08-07T19:33:36.468Z,21.60
2017-08-07T19:36:06.199Z,21.70
2017-08-07T19:38:37.953Z,21.70
2017-08-07T19:41:09.126Z,21.70
2017-08-07T19:43:39.179Z,21.60
2017-08-07T19:46:09.059Z,21.40
2017-08-07T19:48:38.433Z,21.40
2017-08-07T19:51:07.259Z,21.40
2017-08-07T19:53:37.834Z,21.20
2017-08-07T19:56:06.731Z,21.20
2017-08-07T19:58:36.595Z,21.20
2017-08-07T20:01:05.381Z,20.90
2017-08-07T20:03:33.976Z,20.60
2017-08-07T20:06:03.425Z,20.40
2017-08-07T20:08:31.408Z,20.40
2017-08-07T20:10:59.059Z,20.20
2017-08-07T20:13:27.609Z,19.90
2017-08-07T20:15:55.268Z,19.80
2017-08-07T20:18:22.956Z,20.10
2017-08-07T20:20:51.371Z,20.20
2017-08-07T20:23:19.076Z,20.30
2017-08-07T20:25:46.740Z,20.30
2017-08-07T20:28:14.509Z,20.10
2017-08-07T20:30:42.945Z,19.90
2017-08-07T20:33:10.648Z,19.90
2017-08-07T20:35:38.295Z,19.70
2017-08-07T20:38:05.983Z,19.50
2017-08-07T20:40:33.626Z,19.60
2017-08-07T20:43:01.322Z,19.40
2017-08-07T20:45:28.967Z,19.40
2017-08-07T20:47:56.658Z,19.30
2017-08-07T20:50:24.303Z,19.10
2017-08-07T20:52:51.998Z,19.20
2017-08-07T20:55:19.655Z,19.10
2017-08-07T20:57:47.344Z,19.10
2017-08-07T21:00:15.028Z,19.10
2017-08-07T21:02:42.719Z,18.90
2017-08-07T21:05:10.363Z,19.00
2017-08-07T21:07:38.058Z,19.00
2017-08-07T21:10:05.702Z,19.30
2017-08-07T21:12:33.409Z,19.40
2017-08-07T21:15:01.976Z,19.50
2017-08-07T21:17:29.623Z,19.40
2017-08-07T21:19:57.306Z,19.40
2017-08-07T21:22:25.715Z,19.30
2017-08-07T21:24:53.409Z,19.30
2017-08-07T21:27:21.068Z,19.20
2017-08-07T21:29:48.758Z,19.10
2017-08-07T21:32:16.407Z,19.20
2017-08-07T21:34:44.101Z,19.20
2017-08-07T21:37:11.787Z,19.10
2017-08-07T21:39:39.476Z,19.10
2017-08-07T21:42:07.138Z,19.00
2017-08-07T21:44:34.827Z,19.00
2017-08-07T21:47:02.491Z,18.80
2017-08-07T21:49:30.183Z,18.60
2017-08-07T21:51:57.827Z,18.50
2017-08-07T21:54:25.529Z,18.60
2017-08-07T21:56:53.181Z,18.50
2017-08-07T21:59:20.880Z,18.40
2017-08-07T22:01:49.290Z,18.30
2017-08-07T22:04:16.987Z,18.20
2017-08-07T22:06:44.635Z,18.20
2017-08-07T22:09:12.335Z,18.20
2017-08-07T22:11:40.752Z,18.40
2017-08-07T22:14:08.441Z,18.30
2017-08-07T22:16:36.086Z,18.30
2017-08-07T22:19:03.796Z,18.10
2017-08-07T22:21:32.211Z,18.20
2017-08-07T22:23:59.868Z,18.20
2017-08-07T22:26:27.571Z,18.10
2017-08-07T22:28:55.216Z,18.10
2017-08-07T22:31:22.907Z,18.20
2017-08-07T22:33:51.326Z,18.00
2017-08-07T22:36:19.023Z,18.00
2017-08-07T22:38:46.673Z,17.90
2017-08-07T22:41:14.359Z,17.90
2017-08-07T22:43:42.002Z,17.80
2017-08-07T22:46:09.695Z,17.70
2017-08-07T22:48:38.111Z,17.20
2017-08-07T22:51:05.799Z,17.20
2017-08-07T22:53:33.443Z,17.10
2017-08-07T22:56:01.131Z,17.00
2017-08-07T22:58:28.778Z,16.90
2017-08-07T23:00:56.468Z,16.80
2017-08-07T23:03:24.876Z,16.60
2017-08-07T23:05:52.566Z,16.60
2017-08-07T23:08:20.212Z,16.60
2017-08-07T23:10:47.904Z,16.70
2017-08-07T23:13:15.547Z,16.70
2017-08-07T23:15:43.231Z,17.00
2017-08-07T23:18:11.647Z,17.20
2017-08-07T23:20:39.332Z,17.10
2017-08-07T23:23:06.984Z,17.20
2017-08-07T23:25:34.642Z,17.10
2017-08-07T23:28:02.340Z,17.10
2017-08-07T23:30:30.011Z,17.00
2017-08-07T23:32:58.467Z,17.30
2017-08-07T23:35:26.113Z,17.30
2017-08-07T23:37:53.798Z,17.10
2017-08-07T23:40:21.446Z,17.00
2017-08-07T23:42:49.135Z,17.10
2017-08-07T23:45:17.550Z,16.90
2017-08-07T23:47:45.235Z,16.80
2017-08-07T23:50:12.879Z,16.80
2017-08-07T23:52:40.568Z,16.70
2017-08-07T23:55:08.223Z,16.70
2017-08-07T23:57:35.916Z,16.60
